Time;durP1;ratioP1;P1;durP2;ratioP2;P2;SDS_P1;SDS_P2;PMS_P1;PMS_P2;Temp;Humidity;BMP_temperature;BMP_pressure;BME280_temperature;BME280_humidity;BME280_pressure;Samples;Min_cycle;Max_cycle;Signal;HPM_P1;HPM_P2
2022/07/11 00:02:14;;;;;;;1.52;1.10;;;;;;;;;;4984894;28;20467;-89
2022/07/11 00:04:45;;;;;;;0.80;0.70;;;;;;;;;;4983445;28;20023;-88
2022/07/11 00:07:12;;;;;;;1.10;0.90;;;;;;;;;;4985580;28;20034;-87
2022/07/11 00:09:37;;;;;;;1.13;0.90;;;;;;;;;;4981911;28;20470;-87
2022/07/11 00:12:03;;;;;;;2.17;0.98;;;;;;;;;;4983777;28;20038;-85
2022/07/11 00:14:29;;;;;;;1.05;0.95;;;;;;;;;;4978352;28;20038;-86
2022/07/11 00:16:54;;;;;;;1.17;1.08;;;;;;;;;;4986907;28;20052;-85
2022/07/11 00:19:21;;;;;;;1.67;1.20;;;;;;;;;;4987343;28;20039;-86
2022/07/11 00:21:47;;;;;;;3.28;1.02;;;;;;;;;;4986225;28;20117;-86
2022/07/11 00:24:13;;;;;;;2.05;1.13;;;;;;;;;;4984362;28;20049;-86
2022/07/11 00:26:38;;;;;;;1.15;1.05;;;;;;;;;;4987464;28;20030;-87
2022/07/11 00:29:05;;;;;;;1.73;1.25;;;;;;;;;;4990755;28;20062;-87
2022/07/11 00:31:31;;;;;;;1.23;1.02;;;;;;;;;;4984395;28;20069;-87
2022/07/11 00:33:57;;;;;;;1.92;1.10;;;;;;;;;;4986911;28;20113;-87
2022/07/11 00:36:23;;;;;;;1.30;1.10;;;;;;;;;;4984547;28;20160;-87
2022/07/11 00:38:49;;;;;;;1.70;1.10;;;;;;;;;;4984273;28;20046;-87
2022/07/11 00:41:16;;;;;;;1.63;1.20;;;;;;;;;;4986818;28;20033;-85
2022/07/11 00:43:42;;;;;;;1.45;1.08;;;;;;;;;;4987749;28;20157;-85
2022/07/11 00:46:09;;;;;;;1.65;1.00;;;;;;;;;;4984222;28;20109;-87
2022/07/11 00:48:35;;;;;;;1.65;1.15;;;;;;;;;;4983611;28;20046;-85
2022/07/11 00:51:05;;;;;;;1.60;1.10;;;;;;;;;;4983072;28;20235;-88
2022/07/11 00:53:32;;;;;;;1.77;1.30;;;;;;;;;;4982395;28;20118;-84
2022/07/11 00:55:59;;;;;;;1.20;1.10;;;;;;;;;;4978427;28;20038;-85
2022/07/11 00:58:25;;;;;;;2.95;1.10;;;;;;;;;;4981861;28;20520;-85
2022/07/11 01:00:50;;;;;;;2.42;1.13;;;;;;;;;;4980425;28;20030;-88
2022/07/11 01:03:16;;;;;;;3.03;1.23;;;;;;;;;;4983939;28;20491;-86
2022/07/11 01:05:42;;;;;;;2.35;1.00;;;;;;;;;;4980047;28;20026;-87
2022/07/11 01:08:08;;;;;;;1.20;0.90;;;;;;;;;;4980917;28;20104;-83
2022/07/11 01:10:34;;;;;;;1.17;1.00;;;;;;;;;;4983348;28;20026;-82
2022/07/11 01:12:59;;;;;;;0.80;0.80;;;;;;;;;;4983641;28;20049;-86
2022/07/11 01:15:25;;;;;;;1.42;1.10;;;;;;;;;;4981965;28;20031;-83
2022/07/11 01:17:53;;;;;;;1.00;0.90;;;;;;;;;;4979668;28;20394;-86
2022/07/11 01:20:25;;;;;;;1.15;0.90;;;;;;;;;;4983861;28;20700;-85
2022/07/11 01:22:58;;;;;;;2.88;0.95;;;;;;;;;;4985551;28;21267;-86
2022/07/11 01:25:30;;;;;;;1.65;1.00;;;;;;;;;;4987538;28;20034;-83
2022/07/11 01:27:57;;;;;;;2.88;0.93;;;;;;;;;;4981791;28;20027;-86
2022/07/11 01:30:23;;;;;;;1.20;0.90;;;;;;;;;;4985692;28;20030;-86
2022/07/11 01:32:55;;;;;;;1.08;0.88;;;;;;;;;;4985463;28;20023;-84
2022/07/11 01:35:22;;;;;;;2.78;0.90;;;;;;;;;;4982866;28;20504;-85
2022/07/11 01:37:48;;;;;;;1.63;1.20;;;;;;;;;;4984203;28;20027;-85
2022/07/11 01:40:13;;;;;;;1.20;0.90;;;;;;;;;;4981848;28;20097;-87
2022/07/11 01:42:39;;;;;;;2.58;1.67;;;;;;;;;;4983924;28;20026;-87
2022/07/11 01:45:05;;;;;;;1.02;0.93;;;;;;;;;;4980946;28;20029;-85
2022/07/11 01:47:31;;;;;;;0.88;0.82;;;;;;;;;;4987282;28;20034;-87
2022/07/11 01:49:56;;;;;;;1.10;0.90;;;;;;;;;;4989280;28;20034;-87
2022/07/11 01:52:22;;;;;;;1.50;1.00;;;;;;;;;;4986463;28;20035;-86
2022/07/11 01:54:48;;;;;;;1.13;0.80;;;;;;;;;;4987558;28;20042;-84
2022/07/11 01:57:14;;;;;;;1.17;1.00;;;;;;;;;;4982283;28;20389;-85
2022/07/11 01:59:42;;;;;;;1.23;1.00;;;;;;;;;;4989929;28;20558;-86
2022/07/11 02:02:07;;;;;;;1.10;0.95;;;;;;;;;;4985763;28;20030;-86
2022/07/11 02:04:33;;;;;;;1.20;0.90;;;;;;;;;;4987129;28;20477;-85
2022/07/11 02:06:59;;;;;;;1.33;0.80;;;;;;;;;;4986975;28;20470;-86
2022/07/11 02:09:24;;;;;;;1.38;1.05;;;;;;;;;;4988577;28;20035;-82
2022/07/11 02:11:50;;;;;;;1.42;0.90;;;;;;;;;;4985069;28;20190;-86
2022/07/11 02:14:15;;;;;;;1.45;0.88;;;;;;;;;;4990136;28;20053;-85
2022/07/11 02:16:41;;;;;;;1.15;0.70;;;;;;;;;;4981897;28;20391;-88
2022/07/11 02:19:07;;;;;;;1.27;0.80;;;;;;;;;;4983751;28;20026;-84
2022/07/11 02:21:33;;;;;;;1.60;1.15;;;;;;;;;;4986804;28;20494;-86
2022/07/11 02:23:59;;;;;;;1.08;0.90;;;;;;;;;;4986920;28;20019;-85
2022/07/11 02:26:24;;;;;;;2.53;1.00;;;;;;;;;;4991108;28;20109;-86
2022/07/11 02:28:50;;;;;;;1.20;0.90;;;;;;;;;;4988576;28;20057;-85
2022/07/11 02:31:15;;;;;;;1.02;0.90;;;;;;;;;;4988801;28;20113;-85
2022/07/11 02:33:41;;;;;;;2.00;1.08;;;;;;;;;;4988218;28;20033;-85
2022/07/11 02:36:07;;;;;;;1.00;0.90;;;;;;;;;;4988782;28;20034;-85
2022/07/11 02:38:33;;;;;;;1.38;1.13;;;;;;;;;;4986990;28;21478;-84
2022/07/11 02:40:59;;;;;;;1.35;0.82;;;;;;;;;;4989551;28;20069;-85
2022/07/11 02:43:25;;;;;;;0.70;0.70;;;;;;;;;;4987215;28;20144;-85
2022/07/11 02:45:51;;;;;;;2.15;0.95;;;;;;;;;;4989582;28;20015;-84
2022/07/11 02:48:16;;;;;;;2.30;1.00;;;;;;;;;;4988547;28;20022;-86
2022/07/11 02:50:41;;;;;;;2.13;0.90;;;;;;;;;;4984064;28;20037;-85
2022/07/11 02:53:07;;;;;;;1.08;0.90;;;;;;;;;;4989337;28;20398;-86
2022/07/11 02:55:32;;;;;;;0.70;0.70;;;;;;;;;;4989745;28;20031;-87
2022/07/11 02:57:58;;;;;;;1.80;1.10;;;;;;;;;;4985658;28;20078;-86
2022/07/11 03:00:23;;;;;;;1.00;0.90;;;;;;;;;;4984644;28;20485;-85
2022/07/11 03:02:49;;;;;;;1.27;1.00;;;;;;;;;;4980598;28;20114;-84
2022/07/11 03:05:15;;;;;;;2.55;0.90;;;;;;;;;;4981460;28;20160;-83
2022/07/11 03:07:40;;;;;;;1.45;1.00;;;;;;;;;;4983549;28;20045;-85
2022/07/11 03:10:06;;;;;;;1.15;0.80;;;;;;;;;;4989458;28;20026;-83
2022/07/11 03:12:32;;;;;;;0.68;0.68;;;;;;;;;;4988064;28;20105;-87
2022/07/11 03:14:58;;;;;;;1.00;0.90;;;;;;;;;;4985203;28;20057;-85
2022/07/11 03:17:23;;;;;;;1.27;0.80;;;;;;;;;;4982559;28;20110;-85
2022/07/11 03:19:49;;;;;;;3.08;1.10;;;;;;;;;;4989691;28;20081;-85
2022/07/11 03:22:15;;;;;;;1.33;0.98;;;;;;;;;;4989634;28;20394;-87
2022/07/11 03:24:42;;;;;;;2.17;0.80;;;;;;;;;;4985719;28;20463;-86
2022/07/11 03:27:08;;;;;;;1.23;0.90;;;;;;;;;;4987177;28;20038;-86
2022/07/11 03:29:33;;;;;;;1.00;0.88;;;;;;;;;;4988569;28;20077;-85
2022/07/11 03:31:59;;;;;;;2.17;0.82;;;;;;;;;;4981843;28;20030;-86
2022/07/11 03:34:24;;;;;;;1.98;1.15;;;;;;;;;;4984075;28;20034;-85
2022/07/11 03:36:50;;;;;;;2.15;1.00;;;;;;;;;;4985569;28;20529;-85
2022/07/11 03:39:15;;;;;;;1.08;0.85;;;;;;;;;;4979766;28;20058;-86
2022/07/11 03:41:41;;;;;;;0.90;0.80;;;;;;;;;;4982256;28;20030;-86
2022/07/11 03:44:07;;;;;;;1.63;0.95;;;;;;;;;;4988281;28;20022;-88
2022/07/11 03:46:33;;;;;;;1.05;0.80;;;;;;;;;;4986220;28;20039;-87
2022/07/11 03:48:58;;;;;;;2.15;0.88;;;;;;;;;;4985190;28;20033;-85
2022/07/11 03:51:24;;;;;;;0.70;0.70;;;;;;;;;;4987022;28;20432;-85
2022/07/11 03:53:49;;;;;;;1.17;0.70;;;;;;;;;;4982255;28;20442;-87
2022/07/11 03:56:18;;;;;;;3.72;1.25;;;;;;;;;;4982936;28;20499;-85
2022/07/11 03:58:43;;;;;;;1.83;1.02;;;;;;;;;;4982129;28;20022;-86
2022/07/11 04:01:09;;;;;;;1.42;1.00;;;;;;;;;;4983474;28;20038;-85
2022/07/11 04:03:34;;;;;;;1.13;0.90;;;;;;;;;;4986653;28;20034;-84
2022/07/11 04:06:00;;;;;;;0.95;0.85;;;;;;;;;;4986533;28;20019;-85
2022/07/11 04:08:25;;;;;;;2.22;1.08;;;;;;;;;;4985213;28;20483;-86
2022/07/11 04:10:51;;;;;;;1.70;1.10;;;;;;;;;;4988203;28;20034;-89
2022/07/11 04:13:16;;;;;;;2.28;0.95;;;;;;;;;;4982129;28;20051;-86
2022/07/11 04:15:42;;;;;;;2.33;1.10;;;;;;;;;;4985360;28;20026;-84
2022/07/11 04:18:07;;;;;;;1.23;0.93;;;;;;;;;;4979987;28;20403;-85
2022/07/11 04:20:33;;;;;;;1.25;1.00;;;;;;;;;;4985192;28;20019;-85
2022/07/11 04:22:58;;;;;;;2.33;1.10;;;;;;;;;;4984310;28;20052;-85
2022/07/11 04:25:24;;;;;;;1.25;1.05;;;;;;;;;;4985999;28;20810;-85
2022/07/11 04:27:49;;;;;;;2.20;1.08;;;;;;;;;;4984457;28;20037;-86
2022/07/11 04:30:15;;;;;;;2.67;1.10;;;;;;;;;;4989232;28;20057;-86
2022/07/11 04:32:40;;;;;;;1.63;1.10;;;;;;;;;;4988116;28;20045;-87
2022/07/11 04:35:06;;;;;;;1.67;1.20;;;;;;;;;;4986120;28;20038;-85
2022/07/11 04:37:31;;;;;;;1.20;1.10;;;;;;;;;;4985910;28;20037;-83
2022/07/11 04:39:57;;;;;;;3.40;1.13;;;;;;;;;;4979055;28;20382;-84
2022/07/11 04:42:22;;;;;;;1.05;0.80;;;;;;;;;;4985364;28;20085;-86
2022/07/11 04:44:48;;;;;;;1.17;1.00;;;;;;;;;;4983006;28;20083;-86
2022/07/11 04:47:13;;;;;;;3.30;1.10;;;;;;;;;;4982713;28;20026;-85
2022/07/11 04:49:39;;;;;;;2.13;1.13;;;;;;;;;;4986058;28;20037;-86
2022/07/11 04:52:05;;;;;;;1.10;0.95;;;;;;;;;;4983513;28;20069;-86
2022/07/11 04:54:30;;;;;;;1.20;1.10;;;;;;;;;;4985204;28;20034;-89
2022/07/11 04:56:56;;;;;;;2.08;1.15;;;;;;;;;;4985920;28;20387;-86
2022/07/11 04:59:23;;;;;;;3.38;1.10;;;;;;;;;;4986194;28;20516;-88
2022/07/11 05:01:50;;;;;;;2.67;1.30;;;;;;;;;;4987080;28;20466;-85
2022/07/11 05:04:15;;;;;;;2.85;1.33;;;;;;;;;;4981598;28;20404;-88
2022/07/11 05:06:41;;;;;;;2.65;0.90;;;;;;;;;;4982805;28;20533;-88
2022/07/11 05:09:07;;;;;;;2.00;0.93;;;;;;;;;;4988295;28;20422;-85
2022/07/11 05:11:34;;;;;;;1.63;1.05;;;;;;;;;;4988762;28;20030;-84
2022/07/11 05:14:00;;;;;;;1.83;1.10;;;;;;;;;;4982925;28;20023;-86
2022/07/11 05:16:25;;;;;;;3.78;1.25;;;;;;;;;;4993011;28;20048;-85
2022/07/11 05:18:51;;;;;;;2.13;0.98;;;;;;;;;;4991526;28;20026;-86
2022/07/11 05:21:21;;;;;;;2.15;1.08;;;;;;;;;;4995359;28;20471;-88
2022/07/11 05:23:47;;;;;;;2.95;1.08;;;;;;;;;;4990355;28;20022;-84
2022/07/11 05:26:14;;;;;;;1.77;0.85;;;;;;;;;;4985791;28;20113;-86
2022/07/11 05:28:40;;;;;;;2.10;0.90;;;;;;;;;;4988601;28;20030;-86
2022/07/11 05:31:05;;;;;;;3.92;0.95;;;;;;;;;;4987984;28;20030;-84
2022/07/11 05:33:31;;;;;;;0.60;0.60;;;;;;;;;;4986866;28;20058;-85
2022/07/11 05:35:57;;;;;;;0.77;0.63;;;;;;;;;;4984979;28;20030;-90
2022/07/11 05:38:22;;;;;;;2.28;1.05;;;;;;;;;;4989805;28;20028;-83
2022/07/11 05:40:48;;;;;;;1.17;0.80;;;;;;;;;;4987923;28;20033;-86
2022/07/11 05:43:13;;;;;;;1.20;0.73;;;;;;;;;;4993645;28;20034;-84
2022/07/11 05:45:39;;;;;;;0.40;0.40;;;;;;;;;;4992070;28;20028;-88
2022/07/11 05:48:05;;;;;;;1.75;0.88;;;;;;;;;;4992129;28;20101;-87
2022/07/11 05:50:30;;;;;;;1.17;0.95;;;;;;;;;;4991034;28;20034;-88
2022/07/11 05:52:57;;;;;;;2.25;0.85;;;;;;;;;;4987687;28;20029;-85
2022/07/11 05:55:23;;;;;;;1.27;1.00;;;;;;;;;;4988342;28;20430;-85
2022/07/11 05:57:49;;;;;;;2.42;0.98;;;;;;;;;;4988000;28;20462;-85
2022/07/11 06:00:14;;;;;;;1.05;0.77;;;;;;;;;;4992102;28;20037;-86
2022/07/11 06:02:42;;;;;;;1.95;0.80;;;;;;;;;;4989114;28;20030;-82
2022/07/11 06:05:08;;;;;;;1.33;0.90;;;;;;;;;;4985311;28;20026;-84
2022/07/11 06:10:17;;;;;;;1.92;0.93;;;;;;;;;;4986164;28;20045;-85
2022/07/11 06:12:43;;;;;;;1.15;0.85;;;;;;;;;;4987542;28;20042;-83
2022/07/11 06:15:09;;;;;;;1.05;0.98;;;;;;;;;;5005660;28;20035;-86
2022/07/11 06:17:35;;;;;;;1.75;1.10;;;;;;;;;;4989215;28;20049;-88
2022/07/11 06:20:02;;;;;;;1.40;0.93;;;;;;;;;;4986732;28;20033;-84
2022/07/11 06:22:27;;;;;;;2.08;1.15;;;;;;;;;;4991419;28;20490;-85
2022/07/11 06:24:52;;;;;;;2.60;1.10;;;;;;;;;;4990777;28;20041;-83
2022/07/11 06:27:18;;;;;;;1.20;0.90;;;;;;;;;;4987595;28;20026;-84
2022/07/11 06:29:44;;;;;;;1.02;0.70;;;;;;;;;;4987094;28;20031;-86
2022/07/11 06:32:09;;;;;;;2.38;0.75;;;;;;;;;;4984247;28;20038;-84
2022/07/11 06:34:36;;;;;;;2.53;0.80;;;;;;;;;;4990371;28;20039;-85
2022/07/11 06:37:02;;;;;;;0.77;0.73;;;;;;;;;;4988118;28;20030;-84
2022/07/11 06:39:28;;;;;;;1.42;0.85;;;;;;;;;;4992961;28;20177;-83
2022/07/11 06:42:25;;;;;;;0.85;0.65;;;;;;;;;;4992030;28;20637;-87
2022/07/11 06:44:52;;;;;;;1.08;0.70;;;;;;;;;;4980486;28;20522;-84
2022/07/11 06:47:17;;;;;;;1.30;0.70;;;;;;;;;;4986169;28;20035;-88
2022/07/11 06:49:43;;;;;;;2.25;0.98;;;;;;;;;;4987839;28;20026;-85
2022/07/11 06:52:09;;;;;;;1.00;0.60;;;;;;;;;;4980489;28;20023;-87
2022/07/11 06:54:34;;;;;;;1.77;0.60;;;;;;;;;;4987297;28;20033;-84
2022/07/11 06:57:00;;;;;;;0.90;0.70;;;;;;;;;;4982146;28;20031;-85
2022/07/11 06:59:25;;;;;;;2.90;0.68;;;;;;;;;;4984995;28;20062;-86
2022/07/11 07:01:51;;;;;;;5.30;0.88;;;;;;;;;;4988491;28;20479;-88
2022/07/11 07:04:16;;;;;;;0.80;0.50;;;;;;;;;;4988635;28;20074;-83
2022/07/11 07:06:42;;;;;;;0.80;0.50;;;;;;;;;;4991923;28;20026;-85
2022/07/11 07:09:07;;;;;;;0.85;0.60;;;;;;;;;;4987681;28;20026;-85
2022/07/11 07:11:32;;;;;;;1.30;0.50;;;;;;;;;;4991986;28;20165;-84
2022/07/11 07:13:58;;;;;;;4.97;0.80;;;;;;;;;;4989099;28;20022;-87
2022/07/11 07:16:23;;;;;;;1.17;0.60;;;;;;;;;;4983347;28;20034;-84
2022/07/11 07:18:50;;;;;;;1.05;0.80;;;;;;;;;;4990641;28;20082;-84
2022/07/11 07:21:15;;;;;;;2.83;0.95;;;;;;;;;;4989034;28;20033;-84
2022/07/11 07:23:41;;;;;;;11.35;7.72;;;;;;;;;;4990319;28;20038;-83
2022/07/11 07:26:07;;;;;;;2.63;0.80;;;;;;;;;;4987157;28;20026;-84
2022/07/11 07:28:39;;;;;;;1.00;0.60;;;;;;;;;;4988901;28;20117;-88
2022/07/11 07:31:06;;;;;;;1.00;0.73;;;;;;;;;;4992584;28;20102;-88
2022/07/11 07:33:31;;;;;;;4.13;0.85;;;;;;;;;;4994005;28;20072;-84
2022/07/11 07:35:57;;;;;;;1.63;0.80;;;;;;;;;;4993411;28;20094;-85
2022/07/11 07:38:22;;;;;;;1.83;0.70;;;;;;;;;;4989030;28;20038;-85
2022/07/11 07:40:47;;;;;;;1.13;0.75;;;;;;;;;;4989020;28;20034;-88
2022/07/11 07:43:13;;;;;;;1.50;0.90;;;;;;;;;;4988297;28;20038;-85
2022/07/11 07:45:38;;;;;;;1.60;0.70;;;;;;;;;;4987177;28;20394;-83
2022/07/11 07:48:04;;;;;;;1.38;1.00;;;;;;;;;;4990941;28;20075;-83
2022/07/11 07:50:30;;;;;;;0.82;0.82;;;;;;;;;;4992675;28;20053;-83
2022/07/11 07:52:55;;;;;;;1.17;0.73;;;;;;;;;;4994171;28;20027;-86
2022/07/11 07:55:21;;;;;;;1.65;0.90;;;;;;;;;;4990521;28;20030;-86
2022/07/11 07:57:46;;;;;;;1.10;0.80;;;;;;;;;;4987043;28;20030;-89
2022/07/11 08:03:02;;;;;;;1.05;0.68;;;;;;;;;;4989000;28;20069;-86
2022/07/11 08:05:28;;;;;;;1.58;0.80;;;;;;;;;;4983595;28;20083;-84
2022/07/11 08:07:53;;;;;;;1.15;0.80;;;;;;;;;;4985103;28;20109;-83
2022/07/11 08:10:19;;;;;;;1.40;0.80;;;;;;;;;;4985767;28;20080;-83
2022/07/11 08:12:44;;;;;;;1.35;0.70;;;;;;;;;;4993185;28;20042;-86
2022/07/11 08:15:10;;;;;;;1.92;1.17;;;;;;;;;;4988737;28;20027;-81
2022/07/11 08:17:36;;;;;;;0.73;0.55;;;;;;;;;;4976954;28;20037;-84
2022/07/11 08:20:01;;;;;;;1.48;0.90;;;;;;;;;;4981219;28;20052;-85
2022/07/11 08:22:26;;;;;;;1.02;0.70;;;;;;;;;;5005117;28;20386;-83
2022/07/11 08:24:52;;;;;;;1.67;1.27;;;;;;;;;;4990065;28;20360;-84
2022/07/11 08:27:17;;;;;;;1.55;0.68;;;;;;;;;;4983710;28;20026;-84
2022/07/11 08:29:43;;;;;;;1.50;0.57;;;;;;;;;;4991789;28;20030;-86
2022/07/11 08:32:08;;;;;;;2.17;0.75;;;;;;;;;;4992788;28;20042;-86
2022/07/11 08:34:33;;;;;;;1.85;0.90;;;;;;;;;;4987516;28;20026;-87
2022/07/11 08:36:59;;;;;;;1.17;0.70;;;;;;;;;;4991308;28;20026;-86
2022/07/11 08:39:24;;;;;;;1.63;0.80;;;;;;;;;;4987279;28;20422;-84
2022/07/11 08:41:50;;;;;;;0.65;0.55;;;;;;;;;;4987498;28;20062;-86
2022/07/11 08:44:15;;;;;;;1.23;0.70;;;;;;;;;;4981097;28;20026;-86
2022/07/11 08:46:41;;;;;;;1.00;0.70;;;;;;;;;;4981835;28;20030;-84
2022/07/11 08:49:07;;;;;;;1.85;0.73;;;;;;;;;;4985830;28;20022;-83
2022/07/11 08:51:36;;;;;;;3.22;0.65;;;;;;;;;;4979367;28;20458;-85
2022/07/11 08:54:02;;;;;;;1.20;0.70;;;;;;;;;;4984337;28;20030;-83
2022/07/11 08:56:29;;;;;;;1.00;0.60;;;;;;;;;;4986451;28;20291;-84
2022/07/11 08:58:55;;;;;;;2.13;0.77;;;;;;;;;;4987777;28;20468;-84
2022/07/11 09:01:32;;;;;;;4.45;0.85;;;;;;;;;;4987566;28;20489;-83
2022/07/11 09:03:59;;;;;;;1.33;0.60;;;;;;;;;;4986748;28;20030;-84
2022/07/11 09:06:24;;;;;;;2.28;0.80;;;;;;;;;;4990648;28;20108;-84
2022/07/11 09:08:50;;;;;;;1.58;0.70;;;;;;;;;;4985512;28;20475;-84
2022/07/11 09:11:16;;;;;;;1.85;0.70;;;;;;;;;;4986482;28;20085;-84
2022/07/11 09:13:42;;;;;;;1.73;0.63;;;;;;;;;;4986412;28;21007;-82
2022/07/11 09:16:08;;;;;;;1.25;0.60;;;;;;;;;;4986921;28;20162;-84
2022/07/11 09:18:39;;;;;;;0.90;0.63;;;;;;;;;;4991157;28;20043;-83
2022/07/11 09:26:38;;;;;;;1.85;0.80;;;;;;;;;;4985602;28;20029;-82
2022/07/11 09:29:06;;;;;;;1.70;0.73;;;;;;;;;;4990605;28;20063;-84
2022/07/11 09:31:33;;;;;;;0.95;0.63;;;;;;;;;;4985487;28;20153;-86
2022/07/11 09:34:01;;;;;;;1.48;0.82;;;;;;;;;;4988556;28;20047;-83
2022/07/11 09:36:39;;;;;;;1.83;0.55;;;;;;;;;;4979184;28;20085;-85
2022/07/11 09:39:07;;;;;;;1.40;0.73;;;;;;;;;;4988379;28;20030;-85
2022/07/11 09:41:34;;;;;;;1.08;0.50;;;;;;;;;;4987990;28;20053;-86
2022/07/11 09:44:16;;;;;;;1.05;0.50;;;;;;;;;;4986507;28;20033;-83
2022/07/11 09:46:47;;;;;;;1.90;0.70;;;;;;;;;;4997187;28;20475;-86
2022/07/11 09:49:14;;;;;;;2.17;0.60;;;;;;;;;;4984526;28;20196;-83
2022/07/11 09:51:40;;;;;;;0.70;0.70;;;;;;;;;;4989256;28;20022;-87
2022/07/11 09:54:08;;;;;;;0.77;0.50;;;;;;;;;;4989804;28;20027;-84
2022/07/11 09:56:40;;;;;;;1.20;0.80;;;;;;;;;;4988451;28;20126;-85
2022/07/11 09:59:07;;;;;;;1.77;0.63;;;;;;;;;;4986116;28;20046;-84
2022/07/11 10:01:33;;;;;;;1.02;0.50;;;;;;;;;;4989143;28;20498;-82
2022/07/11 10:03:58;;;;;;;0.63;0.50;;;;;;;;;;4990189;28;20034;-87
2022/07/11 10:06:25;;;;;;;1.15;0.82;;;;;;;;;;4992248;28;20081;-84
2022/07/11 10:08:51;;;;;;;1.00;0.70;;;;;;;;;;4988606;28;20026;-83
2022/07/11 10:11:17;;;;;;;0.80;0.60;;;;;;;;;;4982037;28;20019;-83
2022/07/11 10:13:43;;;;;;;0.75;0.60;;;;;;;;;;4987299;28;20027;-83
2022/07/11 10:16:50;;;;;;;1.05;0.70;;;;;;;;;;4986661;28;20026;-85
2022/07/11 10:19:30;;;;;;;0.90;0.50;;;;;;;;;;5005960;28;20089;-85
2022/07/11 10:22:07;;;;;;;0.82;0.60;;;;;;;;;;4991664;28;20510;-87
2022/07/11 10:24:54;;;;;;;1.73;0.77;;;;;;;;;;4986236;28;20046;-86
2022/07/11 10:27:47;;;;;;;1.40;0.60;;;;;;;;;;4990707;28;20041;-83
2022/07/11 10:30:12;;;;;;;1.70;0.50;;;;;;;;;;4987552;28;20102;-81
2022/07/11 10:32:57;;;;;;;0.77;0.50;;;;;;;;;;4991529;28;20034;-82
2022/07/11 10:35:23;;;;;;;2.05;0.63;;;;;;;;;;4987218;28;20097;-84
2022/07/11 10:37:53;;;;;;;1.55;0.82;;;;;;;;;;5001323;28;20022;-85
2022/07/11 10:40:52;;;;;;;1.05;0.63;;;;;;;;;;4981578;28;20482;-83
2022/07/11 10:43:42;;;;;;;1.20;0.52;;;;;;;;;;4984885;28;20046;-86
2022/07/11 10:46:19;;;;;;;1.95;0.80;;;;;;;;;;4993353;28;20034;-85
2022/07/11 10:49:06;;;;;;;2.25;1.30;;;;;;;;;;4990478;28;20089;-83
2022/07/11 10:51:41;;;;;;;2.13;0.65;;;;;;;;;;4992134;28;20489;-82
2022/07/11 10:54:28;;;;;;;1.63;0.88;;;;;;;;;;4990783;28;20026;-84
2022/07/11 10:57:23;;;;;;;1.05;0.57;;;;;;;;;;4987887;28;20018;-84
2022/07/11 11:00:05;;;;;;;0.68;0.60;;;;;;;;;;5007925;28;20032;-83
2022/07/11 11:02:40;;;;;;;1.77;0.85;;;;;;;;;;4992058;28;20406;-86
2022/07/11 11:05:06;;;;;;;0.93;0.60;;;;;;;;;;4989708;28;20038;-84
2022/07/11 11:07:44;;;;;;;1.95;0.60;;;;;;;;;;4987000;28;20044;-84
2022/07/11 11:10:19;;;;;;;0.70;0.65;;;;;;;;;;4989858;28;20030;-85
2022/07/11 11:13:07;;;;;;;1.75;0.60;;;;;;;;;;4990568;28;20050;-85
2022/07/11 11:15:48;;;;;;;1.65;0.65;;;;;;;;;;5004800;28;20092;-85
2022/07/11 11:18:23;;;;;;;1.33;0.65;;;;;;;;;;4991031;28;20044;-83
2022/07/11 11:21:09;;;;;;;0.60;0.57;;;;;;;;;;4995748;28;20146;-85
2022/07/11 11:23:37;;;;;;;0.63;0.63;;;;;;;;;;4979804;28;20054;-87
2022/07/11 11:26:12;;;;;;;1.75;0.73;;;;;;;;;;4988524;28;20037;-87
2022/07/11 11:28:53;;;;;;;2.60;0.60;;;;;;;;;;4989067;28;20069;-86
2022/07/11 11:31:20;;;;;;;1.48;0.63;;;;;;;;;;4981155;28;20047;-84
2022/07/11 11:33:47;;;;;;;0.50;0.50;;;;;;;;;;4984727;28;20026;-87
2022/07/11 11:36:16;;;;;;;1.33;0.82;;;;;;;;;;4985655;28;20416;-87
2022/07/11 11:38:43;;;;;;;1.80;0.63;;;;;;;;;;4990106;28;20034;-83
2022/07/11 11:41:09;;;;;;;1.10;0.70;;;;;;;;;;4987837;28;20035;-84
2022/07/11 11:43:40;;;;;;;1.35;0.60;;;;;;;;;;4990441;28;20479;-84
2022/07/11 11:46:05;;;;;;;1.13;0.68;;;;;;;;;;4991029;28;20022;-85
2022/07/11 11:48:38;;;;;;;2.65;0.80;;;;;;;;;;4993101;28;20390;-82
2022/07/11 11:51:08;;;;;;;0.65;0.60;;;;;;;;;;4988833;28;20041;-84
2022/07/11 11:53:44;;;;;;;0.98;0.68;;;;;;;;;;4986493;28;20041;-85
2022/07/11 11:56:20;;;;;;;1.52;0.70;;;;;;;;;;4984130;28;20054;-83
2022/07/11 11:58:47;;;;;;;1.55;0.70;;;;;;;;;;4990753;28;20023;-86
2022/07/11 12:01:19;;;;;;;1.77;0.80;;;;;;;;;;4983955;28;20019;-87
2022/07/11 12:03:48;;;;;;;1.77;0.80;;;;;;;;;;4987163;28;20051;-86
2022/07/11 12:06:14;;;;;;;1.17;0.60;;;;;;;;;;4988063;28;20095;-87
2022/07/11 12:08:39;;;;;;;0.80;0.50;;;;;;;;;;4986568;28;20061;-84
2022/07/11 12:11:05;;;;;;;1.25;0.60;;;;;;;;;;5002995;28;20089;-85
2022/07/11 12:13:30;;;;;;;2.60;0.57;;;;;;;;;;4986185;28;20046;-87
2022/07/11 12:18:40;;;;;;;0.57;0.55;;;;;;;;;;4989698;28;20049;-86
2022/07/11 12:21:10;;;;;;;1.27;0.80;;;;;;;;;;4984584;28;20038;-85
2022/07/11 12:23:36;;;;;;;4.40;0.80;;;;;;;;;;4986259;28;20072;-87
2022/07/11 12:26:02;;;;;;;2.10;0.90;;;;;;;;;;4984653;28;20026;-85
2022/07/11 12:28:27;;;;;;;0.60;0.60;;;;;;;;;;4988261;28;20034;-83
2022/07/11 12:30:57;;;;;;;0.60;0.60;;;;;;;;;;4989515;28;20532;-83
2022/07/11 12:33:25;;;;;;;1.20;0.90;;;;;;;;;;4989172;28;20038;-83
2022/07/11 12:35:55;;;;;;;0.73;0.60;;;;;;;;;;4990541;28;20038;-83
2022/07/11 12:38:22;;;;;;;;;;;;;;;;;;4993763;28;20125;-88
2022/07/11 12:41:04;;;;;;;2.55;0.90;;;;;;;;;;5006050;28;19917;-81
2022/07/11 12:46:46;;;;;;;1.35;0.90;;;;;;;;;;4981343;28;20045;-85
2022/07/11 12:49:12;;;;;;;1.10;0.70;;;;;;;;;;4984124;28;20108;-84
2022/07/11 12:51:40;;;;;;;0.90;0.80;;;;;;;;;;4981710;28;20031;-85
2022/07/11 12:54:11;;;;;;;0.70;0.50;;;;;;;;;;4979980;28;20031;-87
2022/07/11 12:56:37;;;;;;;0.82;0.68;;;;;;;;;;4984218;28;20037;-86
2022/07/11 12:59:04;;;;;;;1.65;0.57;;;;;;;;;;4980413;28;20486;-85
2022/07/11 13:01:30;;;;;;;0.60;0.60;;;;;;;;;;4984678;28;20023;-86
2022/07/11 13:03:56;;;;;;;0.95;0.50;;;;;;;;;;4982286;28;20073;-84
2022/07/11 13:09:06;;;;;;;1.45;0.70;;;;;;;;;;4979012;28;20537;-85
2022/07/11 13:11:31;;;;;;;0.90;0.60;;;;;;;;;;4983921;28;20026;-86
2022/07/11 13:13:57;;;;;;;1.90;0.88;;;;;;;;;;4988444;28;20026;-82
2022/07/11 13:20:10;;;;;;;3.45;1.00;;;;;;;;;;5071525;28;20721;-84
2022/07/11 13:22:36;;;;;;;1.13;0.80;;;;;;;;;;5056877;28;20024;-86
2022/07/11 13:25:03;;;;;;;0.95;0.70;;;;;;;;;;5054384;28;20052;-85
2022/07/11 13:27:29;;;;;;;1.55;0.80;;;;;;;;;;5060056;28;20033;-85
2022/07/11 13:29:55;;;;;;;2.38;0.88;;;;;;;;;;5062055;28;20021;-86
2022/07/11 13:32:20;;;;;;;0.70;0.60;;;;;;;;;;5058039;28;20021;-86
2022/07/11 13:34:48;;;;;;;2.53;0.80;;;;;;;;;;5058259;28;20029;-87
2022/07/11 13:37:17;;;;;;;0.85;0.70;;;;;;;;;;5055417;28;20469;-87
2022/07/11 13:39:43;;;;;;;0.87;0.80;;;;;;;;;;5062813;28;20376;-87
2022/07/11 13:42:08;;;;;;;0.98;0.70;;;;;;;;;;5056564;28;20274;-86
2022/07/11 13:44:33;;;;;;;1.48;0.73;;;;;;;;;;5058531;28;20025;-86
2022/07/11 13:46:59;;;;;;;1.23;0.70;;;;;;;;;;5051762;28;20082;-84
2022/07/11 13:49:25;;;;;;;0.77;0.70;;;;;;;;;;5054781;28;20496;-86
2022/07/11 13:51:50;;;;;;;1.63;0.73;;;;;;;;;;5054629;28;20029;-86
2022/07/11 13:54:16;;;;;;;2.50;0.68;;;;;;;;;;5063653;28;20031;-86
2022/07/11 13:56:41;;;;;;;1.67;0.85;;;;;;;;;;5060475;28;20179;-86
2022/07/11 13:59:06;;;;;;;1.30;0.80;;;;;;;;;;5055708;28;20550;-87
2022/07/11 14:01:32;;;;;;;0.98;0.80;;;;;;;;;;5057433;28;20032;-90
2022/07/11 14:03:58;;;;;;;1.23;0.90;;;;;;;;;;5057148;28;20036;-87
2022/07/11 14:06:23;;;;;;;2.28;0.98;;;;;;;;;;5057120;28;20104;-85
2022/07/11 14:08:50;;;;;;;0.90;0.85;;;;;;;;;;5063235;28;20052;-88
2022/07/11 14:11:15;;;;;;;0.90;0.82;;;;;;;;;;5058079;28;20104;-87
2022/07/11 14:13:41;;;;;;;2.10;1.30;;;;;;;;;;5053238;28;20175;-86
2022/07/11 14:16:06;;;;;;;0.85;0.57;;;;;;;;;;5046386;28;20032;-88
2022/07/11 14:18:32;;;;;;;5.38;1.65;;;;;;;;;;5054545;28;20092;-88
2022/07/11 14:20:58;;;;;;;2.33;1.13;;;;;;;;;;5050165;28;20426;-85
2022/07/11 14:23:25;;;;;;;1.33;0.80;;;;;;;;;;5049903;28;20112;-88
2022/07/11 14:25:51;;;;;;;1.90;0.80;;;;;;;;;;5049260;28;20041;-86
2022/07/11 14:28:17;;;;;;;0.82;0.60;;;;;;;;;;5053677;28;20452;-88
2022/07/11 14:30:44;;;;;;;1.75;1.10;;;;;;;;;;5046818;28;20033;-86
2022/07/11 14:33:09;;;;;;;1.10;0.95;;;;;;;;;;5044746;28;20639;-88
2022/07/11 14:35:35;;;;;;;1.20;0.75;;;;;;;;;;5043235;28;20063;-87
2022/07/11 14:38:01;;;;;;;1.15;0.88;;;;;;;;;;5038797;28;20059;-86
2022/07/11 14:40:27;;;;;;;0.70;0.68;;;;;;;;;;5042582;28;20025;-87
2022/07/11 14:42:52;;;;;;;0.95;0.77;;;;;;;;;;5041217;28;20381;-86
2022/07/11 14:45:18;;;;;;;1.73;1.25;;;;;;;;;;5044505;28;20504;-84
2022/07/11 14:47:44;;;;;;;1.17;0.85;;;;;;;;;;5046745;28;20033;-87
2022/07/11 14:50:10;;;;;;;1.13;0.93;;;;;;;;;;5044263;28;20406;-83
2022/07/11 14:52:36;;;;;;;0.73;0.70;;;;;;;;;;5042550;28;20491;-90
2022/07/11 14:55:01;;;;;;;1.08;0.73;;;;;;;;;;5036883;28;20358;-86
2022/07/11 14:57:27;;;;;;;2.92;0.80;;;;;;;;;;5051159;28;20075;-90
2022/07/11 14:59:52;;;;;;;2.70;0.90;;;;;;;;;;5036280;28;20025;-86
2022/07/11 15:03:37;;;;;;;1.10;0.90;;;;;;;;;;5042005;28;20033;-87
2022/07/11 15:05:04;;;;;;;2.40;0.80;;;;;;;;;;5045176;28;20034;-86
2022/07/11 15:12:57;;;;;;;1.73;1.02;;;;;;;;;;5036025;28;20120;-86
2022/07/11 15:15:22;;;;;;;0.75;0.75;;;;;;;;;;5040203;28;20112;-89